Time;durP1;ratioP1;P1;durP2;ratioP2;P2;SDS_P1;SDS_P2;PMS_P1;PMS_P2;Temp;Humidity;BMP_temperature;BMP_pressure;BME280_temperature;BME280_humidity;BME280_pressure;Samples;Min_cycle;Max_cycle;Signal;HPM_P1;HPM_P2
2023/01/30 00:01:04;;;;;;;57.60;24.10;;;;;;;2.80;97.49;101451.06;5096115;28;20059;-50
2023/01/30 00:03:33;;;;;;;67.13;23.15;;;;;;;2.99;97.34;101445.59;5096644;28;20079;-50
2023/01/30 00:05:59;;;;;;;59.53;22.58;;;;;;;2.92;97.64;101454.75;5096290;28;20063;-50
2023/01/30 00:08:26;;;;;;;73.05;24.77;;;;;;;2.91;97.62;101470.53;5116944;28;20561;-51
2023/01/30 00:10:53;;;;;;;66.00;24.55;;;;;;;2.80;98.76;101476.38;5115368;28;20453;-49
2023/01/30 00:13:19;;;;;;;66.72;25.77;;;;;;;2.78;98.88;101473.84;5116805;28;20055;-51
2023/01/30 00:15:47;;;;;;;69.40;25.50;;;;;;;2.82;99.39;101462.28;5116589;28;20101;-50
2023/01/30 00:18:14;;;;;;;72.22;25.23;;;;;;;2.84;99.51;101464.81;5116420;28;20060;-48
2023/01/30 00:20:40;;;;;;;70.93;24.58;;;;;;;2.85;99.31;101456.03;5116017;28;20122;-50
2023/01/30 00:23:07;;;;;;;82.10;27.88;;;;;;;2.92;99.71;101448.66;5116323;27;20089;-50
2023/01/30 00:25:33;;;;;;;82.47;26.77;;;;;;;2.97;98.94;101446.63;5116437;28;20493;-51
2023/01/30 00:28:01;;;;;;;75.30;24.80;;;;;;;3.00;99.63;101443.81;5097320;28;20434;-50
2023/01/30 00:30:29;;;;;;;80.40;26.50;;;;;;;3.01;99.31;101446.34;5096057;28;20528;-50
2023/01/30 00:32:57;;;;;;;76.50;27.20;;;;;;;3.00;100.00;101439.44;5095693;28;20071;-51
2023/01/30 00:35:27;;;;;;;85.50;28.38;;;;;;;2.89;100.00;101441.81;5095736;28;20051;-49
2023/01/30 00:37:56;;;;;;;87.65;28.48;;;;;;;2.95;100.00;101436.22;5094457;28;20044;-48
2023/01/30 00:40:25;;;;;;;72.68;25.65;;;;;;;3.05;100.00;101424.25;5095976;28;20067;-51
2023/01/30 00:48:30;;;;;;;86.85;27.52;;;;;;;2.94;100.00;101405.69;5094573;28;20048;-48
2023/01/30 00:50:56;;;;;;;96.88;27.92;;;;;;;3.04;100.00;101401.63;5094408;28;20067;-49
2023/01/30 00:53:23;;;;;;;73.63;24.95;;;;;;;3.21;100.00;101394.53;5095217;28;20493;-50
2023/01/30 00:55:51;;;;;;;74.07;25.67;;;;;;;3.06;100.00;101378.78;5094544;28;20044;-49
2023/01/30 00:58:18;;;;;;;93.00;28.48;;;;;;;3.07;100.00;101383.09;5074936;28;20067;-50
2023/01/30 01:00:45;;;;;;;87.30;27.20;;;;;;;3.09;100.00;101377.75;5074740;28;20075;-52
2023/01/30 01:03:12;;;;;;;80.65;26.98;;;;;;;3.17;100.00;101388.63;5075059;28;20044;-49
2023/01/30 01:05:39;;;;;;;61.83;21.58;;;;;;;3.21;100.00;101382.28;5075011;28;20059;-49
2023/01/30 01:08:06;;;;;;;84.00;26.60;;;;;;;3.22;100.00;101373.47;5110710;28;20043;-50
2023/01/30 01:10:33;;;;;;;74.45;26.38;;;;;;;3.11;100.00;101365.41;5115518;28;20044;-48
2023/01/30 01:13:00;;;;;;;76.05;26.45;;;;;;;3.21;100.00;101369.16;5115512;28;20875;-51
2023/01/30 01:15:27;;;;;;;61.45;23.17;;;;;;;3.23;100.00;101377.78;5106195;28;20089;-51
2023/01/30 01:17:54;;;;;;;56.35;21.67;;;;;;;3.26;100.00;101376.75;5074960;28;20101;-49
2023/01/30 01:20:21;;;;;;;63.47;24.02;;;;;;;3.29;100.00;101358.19;5074961;28;20114;-50
2023/01/30 01:22:53;;;;;;;55.55;23.23;;;;;;;3.34;100.00;101361.41;5074770;28;20048;-49
2023/01/30 01:25:20;;;;;;;55.15;22.25;;;;;;;3.33;100.00;101354.47;5074700;28;20052;-50
2023/01/30 01:27:48;;;;;;;55.72;22.10;;;;;;;3.28;100.00;101359.16;5091803;28;20500;-48
2023/01/30 01:30:16;;;;;;;46.88;18.73;;;;;;;3.32;100.00;101351.94;5094849;28;20071;-50
2023/01/30 01:32:43;;;;;;;52.30;20.30;;;;;;;3.33;100.00;101348.38;5093777;28;20056;-51
2023/01/30 01:35:10;;;;;;;46.90;18.88;;;;;;;3.36;100.00;101358.69;5094419;28;20451;-49
2023/01/30 01:37:37;;;;;;;47.65;20.25;;;;;;;3.40;100.00;101347.06;5093276;28;20048;-50
2023/01/30 01:42:52;;;;;;;41.53;17.83;;;;;;;3.45;100.00;101340.59;5094467;28;20048;-53
2023/01/30 01:45:21;;;;;;;38.25;17.23;;;;;;;3.45;100.00;101352.88;5094248;28;20074;-51
2023/01/30 01:48:11;;;;;;;46.60;19.70;;;;;;;3.50;100.00;101342.13;5094341;28;20567;-50
2023/01/30 01:53:20;;;;;;;41.88;17.98;;;;;;;3.54;100.00;101347.06;5152751;27;20755;-49
2023/01/30 01:55:50;;;;;;;45.10;18.50;;;;;;;3.50;100.00;101344.75;5131804;28;20043;-52
2023/01/30 01:58:27;;;;;;;41.88;18.73;;;;;;;3.45;100.00;101347.63;5131744;28;20488;-48
2023/01/30 02:00:57;;;;;;;42.47;19.20;;;;;;;3.57;100.00;101339.03;5131289;28;20409;-48
2023/01/30 02:03:27;;;;;;;42.80;19.75;;;;;;;3.55;100.00;101334.81;5132039;28;20435;-50
2023/01/30 02:05:57;;;;;;;44.17;18.98;;;;;;;3.51;100.00;101317.56;5130986;28;20492;-51
2023/01/30 02:08:30;;;;;;;50.72;19.88;;;;;;;3.54;100.00;101317.38;5093077;28;20131;-50
2023/01/30 02:11:19;;;;;;;49.50;20.13;;;;;;;3.53;100.00;101321.78;5111008;28;20048;-50
2023/01/30 02:13:46;;;;;;;50.15;20.17;;;;;;;3.55;100.00;101316.47;5110723;28;20508;-50
2023/01/30 02:16:14;;;;;;;43.33;19.83;;;;;;;3.58;100.00;101303.97;5110845;28;20071;-51
2023/01/30 02:18:44;;;;;;;42.55;18.50;;;;;;;3.60;100.00;101296.00;5111030;28;20052;-48
2023/01/30 02:21:49;;;;;;;43.40;20.48;;;;;;;3.54;100.00;101291.16;5110571;28;20050;-52
2023/01/30 02:24:45;;;;;;;50.13;17.73;;;;;;;3.61;100.00;101297.72;5110869;28;20040;-50
2023/01/30 02:27:22;;;;;;;44.45;17.15;;;;;;;3.57;100.00;101294.44;5133603;27;20081;-49
2023/01/30 02:30:28;;;;;;;41.30;16.27;;;;;;;3.58;100.00;101279.53;5152088;27;20053;-49
2023/01/30 02:33:10;;;;;;;57.67;21.65;;;;;;;3.56;100.00;101282.22;5151130;27;20078;-51
2023/01/30 02:39:03;;;;;;;50.92;20.73;;;;;;;3.58;100.00;101271.66;5111368;27;20865;-51
2023/01/30 02:41:41;;;;;;;51.63;20.08;;;;;;;3.63;100.00;101254.69;5111501;28;20044;-50
2023/01/30 02:44:22;;;;;;;47.38;19.92;;;;;;;3.70;100.00;101247.28;5111424;28;20071;-52
2023/01/30 02:47:21;;;;;;;46.28;18.73;;;;;;;3.72;100.00;101245.38;5105084;28;20044;-50
2023/01/30 02:49:57;;;;;;;56.47;21.33;;;;;;;3.70;100.00;101230.69;5109890;28;20051;-49
2023/01/30 02:52:25;;;;;;;52.58;21.98;;;;;;;3.66;100.00;101237.91;5110446;28;20071;-51
2023/01/30 02:54:52;;;;;;;49.20;20.20;;;;;;;3.73;100.00;101248.84;5110961;28;20500;-50
2023/01/30 02:57:22;;;;;;;53.38;20.83;;;;;;;3.81;100.00;101231.69;5110913;28;20071;-48
2023/01/30 02:59:58;;;;;;;50.65;21.40;;;;;;;3.85;100.00;101213.94;5110347;28;20071;-49
2023/01/30 03:02:36;;;;;;;46.45;18.60;;;;;;;3.82;100.00;101217.63;5111072;28;20039;-49
2023/01/30 03:05:36;;;;;;;57.83;21.60;;;;;;;3.79;100.00;101222.22;5110875;28;20047;-49
2023/01/30 03:08:27;;;;;;;50.10;19.50;;;;;;;3.80;100.00;101216.88;5128030;28;20040;-51
2023/01/30 03:10:58;;;;;;;;;;;;;;;3.82;100.00;101209.75;5131817;27;20051;-51
2023/01/30 03:13:58;;;;;;;55.60;21.90;;;;;;;3.87;100.00;101213.84;5131347;27;20284;-50
2023/01/30 03:16:37;;;;;;;64.07;23.33;;;;;;;3.82;100.00;101211.50;5130855;27;20069;-50
2023/01/30 03:19:08;;;;;;;58.10;21.08;;;;;;;3.83;100.00;101205.34;5130677;27;20389;-51
2023/01/30 03:21:41;;;;;;;62.27;23.77;;;;;;;3.92;100.00;101211.78;5131110;27;20039;-49
2023/01/30 03:24:07;;;;;;;49.67;19.90;;;;;;;4.00;100.00;101235.75;5131087;27;20043;-50
2023/01/30 03:26:39;;;;;;;50.95;16.83;;;;;;;3.84;100.00;101207.88;5123826;28;20036;-52
2023/01/30 03:29:08;;;;;;;60.55;24.30;;;;;;;3.84;100.00;101204.41;5110587;28;20040;-52
2023/01/30 03:31:34;;;;;;;57.72;21.67;;;;;;;3.86;100.00;101223.53;5110437;28;20044;-52
2023/01/30 03:34:02;;;;;;;55.22;21.80;;;;;;;3.83;100.00;101195.66;5109932;28;20078;-51
2023/01/30 03:36:30;;;;;;;61.45;23.80;;;;;;;3.83;100.00;101206.16;5109938;28;20122;-52
2023/01/30 03:38:57;;;;;;;58.85;21.88;;;;;;;3.87;100.00;101212.06;5110334;28;20516;-53
2023/01/30 03:41:24;;;;;;;61.85;21.63;;;;;;;3.87;100.00;101214.69;5110332;28;20048;-50
2023/01/30 03:43:51;;;;;;;51.78;17.85;;;;;;;3.90;100.00;101190.03;5110331;28;20630;-52
2023/01/30 03:46:18;;;;;;;54.42;21.52;;;;;;;3.93;100.00;101174.94;5109846;28;20055;-52
2023/01/30 03:48:45;;;;;;;59.83;25.05;;;;;;;3.99;100.00;101169.28;5104710;28;20558;-52
2023/01/30 03:51:12;;;;;;;62.22;23.30;;;;;;;3.95;100.00;101170.41;5096011;28;20056;-52
2023/01/30 03:53:40;;;;;;;60.55;20.88;;;;;;;3.96;100.00;101156.34;5096307;28;20039;-52
2023/01/30 03:56:08;;;;;;;61.33;22.25;;;;;;;3.95;100.00;101162.56;5096108;28;20449;-52
2023/01/30 03:58:35;;;;;;;63.22;24.30;;;;;;;4.02;100.00;101155.09;5095945;28;20044;-53
2023/01/30 04:01:14;;;;;;;53.65;18.60;;;;;;;3.95;100.00;101146.78;5095645;28;20048;-53
2023/01/30 04:03:41;;;;;;;58.08;23.10;;;;;;;3.97;100.00;101150.16;5096334;28;20048;-51
2023/01/30 04:06:08;;;;;;;60.13;23.73;;;;;;;4.00;100.00;101151.72;5097254;28;20047;-51
2023/01/30 04:08:34;;;;;;;37.13;16.73;;;;;;;3.94;100.00;101154.78;5116547;28;20036;-52
2023/01/30 04:11:02;;;;;;;62.75;23.65;;;;;;;3.93;100.00;101143.44;5116381;28;20063;-52
2023/01/30 04:13:29;;;;;;;61.75;23.67;;;;;;;3.98;100.00;101146.59;5116522;28;20059;-52
2023/01/30 04:16:17;;;;;;;60.97;24.30;;;;;;;4.00;100.00;101143.84;5116289;28;20059;-53
2023/01/30 04:19:04;;;;;;;57.20;22.42;;;;;;;4.03;100.00;101136.63;5115901;28;20078;-52
2023/01/30 04:21:32;;;;;;;52.67;21.63;;;;;;;4.01;100.00;101130.63;5115833;28;20687;-52
2023/01/30 04:23:59;;;;;;;59.90;23.05;;;;;;;4.13;100.00;101131.59;5116368;28;20048;-52
2023/01/30 04:26:26;;;;;;;62.38;23.08;;;;;;;4.07;100.00;101129.38;5110297;28;20394;-53
2023/01/30 04:28:53;;;;;;;55.40;22.48;;;;;;;4.09;100.00;101126.66;5095986;28;20044;-50
2023/01/30 04:31:21;;;;;;;47.58;18.38;;;;;;;4.08;100.00;101128.44;5095555;28;20044;-52
2023/01/30 04:33:56;;;;;;;45.33;21.42;;;;;;;4.08;100.00;101117.94;5095570;28;20055;-53
2023/01/30 04:36:23;;;;;;;47.42;22.20;;;;;;;4.10;100.00;101134.44;5095151;28;20140;-52
2023/01/30 04:38:49;;;;;;;54.50;22.55;;;;;;;4.09;100.00;101129.28;5095523;28;20044;-52
2023/01/30 04:41:19;;;;;;;39.83;15.93;;;;;;;4.09;100.00;101140.63;5095622;28;20177;-50
2023/01/30 04:43:46;;;;;;;49.22;20.95;;;;;;;4.17;100.00;101129.63;5095525;28;20086;-49
2023/01/30 04:46:25;;;;;;;56.70;22.08;;;;;;;4.14;100.00;101119.31;5098476;27;20397;-52
2023/01/30 04:48:52;;;;;;;49.53;20.52;;;;;;;4.14;100.00;101124.56;5089801;28;20044;-52
2023/01/30 04:51:19;;;;;;;55.00;22.80;;;;;;;4.11;100.00;101125.63;5090948;28;20048;-53
2023/01/30 04:53:46;;;;;;;55.78;23.20;;;;;;;4.06;100.00;101118.97;5090734;28;20123;-50
2023/01/30 04:56:14;;;;;;;60.15;22.67;;;;;;;4.01;100.00;101120.13;5090554;28;20044;-50
2023/01/30 04:58:41;;;;;;;54.35;20.75;;;;;;;3.96;100.00;101108.25;5090360;28;20055;-52
2023/01/30 05:01:13;;;;;;;47.10;21.83;;;;;;;4.00;100.00;101131.59;5090462;28;20055;-49
2023/01/30 05:03:40;;;;;;;38.92;17.40;;;;;;;3.99;100.00;101123.81;5090526;28;20393;-51
2023/01/30 05:06:07;;;;;;;51.72;22.20;;;;;;;3.94;100.00;101108.34;5091674;28;20036;-49
2023/01/30 05:08:33;;;;;;;52.03;22.13;;;;;;;4.00;100.00;101114.97;5111079;28;20043;-49
2023/01/30 05:11:00;;;;;;;47.25;21.02;;;;;;;4.02;100.00;101110.47;5110970;28;20101;-48
2023/01/30 05:13:26;;;;;;;44.72;20.38;;;;;;;4.06;100.00;101111.09;5110857;28;20071;-50
2023/01/30 05:15:53;;;;;;;50.42;20.25;;;;;;;4.06;100.00;101116.34;5110624;28;20093;-51
2023/01/30 05:18:20;;;;;;;40.72;18.50;;;;;;;4.02;100.00;101116.56;5110806;28;20097;-49
2023/01/30 05:20:46;;;;;;;46.38;20.13;;;;;;;4.02;100.00;101107.84;5110782;28;20134;-50
2023/01/30 05:23:13;;;;;;;44.33;20.55;;;;;;;3.95;100.00;101102.16;5110637;28;20040;-48
2023/01/30 05:25:40;;;;;;;49.95;20.40;;;;;;;4.03;100.00;101107.72;5110566;28;20072;-49
2023/01/30 05:28:06;;;;;;;47.50;20.33;;;;;;;4.09;100.00;101109.09;5090565;28;20055;-50
2023/01/30 05:30:33;;;;;;;45.55;20.27;;;;;;;4.05;100.00;101107.63;5090046;28;20032;-51
2023/01/30 05:33:00;;;;;;;43.58;18.88;;;;;;;4.07;100.00;101112.78;5090038;28;20071;-51
2023/01/30 05:35:26;;;;;;;47.05;20.20;;;;;;;4.06;100.00;101124.22;5090063;28;20040;-50
2023/01/30 05:37:53;;;;;;;30.15;14.82;;;;;;;4.08;100.00;101110.06;5089998;28;20048;-50
2023/01/30 05:40:19;;;;;;;31.58;15.07;;;;;;;4.07;100.00;101103.13;5089904;28;20397;-49
2023/01/30 05:42:46;;;;;;;40.88;18.20;;;;;;;4.11;100.00;101095.88;5089784;28;20047;-49
2023/01/30 05:45:13;;;;;;;35.45;16.50;;;;;;;4.16;100.00;101092.00;5089278;28;20048;-51
2023/01/30 05:47:39;;;;;;;37.25;18.00;;;;;;;4.16;100.00;101093.78;5089919;28;20044;-49
2023/01/30 05:50:07;;;;;;;31.15;16.23;;;;;;;4.14;100.00;101100.94;5089841;28;20053;-51
2023/01/30 05:52:34;;;;;;;39.53;18.67;;;;;;;4.18;100.00;101086.66;5089538;28;20067;-52
2023/01/30 05:55:00;;;;;;;36.72;18.58;;;;;;;4.09;100.00;101077.59;5089795;28;20044;-51
2023/01/30 05:57:27;;;;;;;44.08;19.65;;;;;;;4.21;100.00;101083.81;5093658;28;20490;-50
2023/01/30 05:59:54;;;;;;;41.35;19.27;;;;;;;4.15;100.00;101090.31;5073098;28;20040;-51
2023/01/30 06:02:21;;;;;;;41.10;18.73;;;;;;;4.16;100.00;101080.66;5072887;28;20044;-51
2023/01/30 06:04:47;;;;;;;42.97;19.27;;;;;;;4.22;100.00;101094.22;5075710;28;20154;-50
2023/01/30 06:07:14;;;;;;;41.47;18.65;;;;;;;4.26;100.00;101091.38;5085553;28;20090;-50
2023/01/30 06:09:40;;;;;;;41.70;17.95;;;;;;;4.22;100.00;101095.97;5096041;28;20047;-52
2023/01/30 06:12:07;;;;;;;41.05;18.92;;;;;;;4.30;100.00;101100.75;5095741;28;20074;-52
2023/01/30 06:14:34;;;;;;;37.60;17.42;;;;;;;4.29;100.00;101107.75;5095983;28;20068;-50
2023/01/30 06:17:00;;;;;;;36.97;16.90;;;;;;;4.27;100.00;101099.16;5096061;28;20052;-51
2023/01/30 06:19:27;;;;;;;40.03;19.13;;;;;;;4.31;100.00;101099.78;5096088;28;20051;-51
2023/01/30 06:21:54;;;;;;;40.90;18.35;;;;;;;4.34;100.00;101110.91;5103374;28;20517;-52
2023/01/30 06:24:20;;;;;;;41.13;18.30;;;;;;;4.38;100.00;101122.06;5074620;28;20402;-51
2023/01/30 06:26:47;;;;;;;38.92;19.20;;;;;;;4.42;100.00;101134.03;5074757;28;20033;-52
2023/01/30 06:29:14;;;;;;;38.80;17.10;;;;;;;4.41;100.00;101130.56;5074520;28;20098;-52
2023/01/30 06:31:41;;;;;;;36.28;16.55;;;;;;;4.41;100.00;101116.59;5075242;28;20055;-53
2023/01/30 06:34:09;;;;;;;42.13;17.80;;;;;;;4.47;100.00;101123.22;5075317;28;20371;-52
2023/01/30 06:36:35;;;;;;;34.53;17.63;;;;;;;4.52;100.00;101129.84;5074941;28;20045;-51
2023/01/30 06:39:02;;;;;;;26.90;13.43;;;;;;;4.53;100.00;101147.28;5075260;28;20040;-53
2023/01/30 06:41:29;;;;;;;38.33;17.35;;;;;;;4.53;100.00;101126.28;5075145;28;20059;-53
2023/01/30 06:43:55;;;;;;;39.67;16.85;;;;;;;4.60;100.00;101127.53;5075010;28;20075;-53
2023/01/30 06:46:22;;;;;;;33.53;16.08;;;;;;;4.57;100.00;101137.41;5089898;28;20052;-53
2023/01/30 06:48:49;;;;;;;33.03;15.95;;;;;;;4.60;100.00;101142.44;5074821;28;20048;-53
2023/01/30 06:51:15;;;;;;;35.88;16.95;;;;;;;4.63;100.00;101136.16;5074696;28;20410;-52
2023/01/30 06:53:42;;;;;;;32.22;15.65;;;;;;;4.66;100.00;101139.41;5074634;28;20045;-53
2023/01/30 06:56:09;;;;;;;33.28;15.88;;;;;;;4.70;100.00;101137.41;5074729;28;20432;-52
2023/01/30 06:58:35;;;;;;;32.05;13.95;;;;;;;4.71;100.00;101153.06;5074156;28;20406;-55
2023/01/30 07:01:03;;;;;;;30.88;14.48;;;;;;;4.70;100.00;101161.91;5074348;28;20045;-52
2023/01/30 07:03:29;;;;;;;38.47;14.40;;;;;;;4.73;100.00;101158.19;5074819;28;20048;-53
2023/01/30 07:05:56;;;;;;;29.05;14.90;;;;;;;4.73;100.00;101148.56;5072540;28;20040;-54
2023/01/30 07:08:23;;;;;;;30.33;14.27;;;;;;;4.74;100.00;101141.50;5070561;28;20044;-51
2023/01/30 07:10:50;;;;;;;34.38;14.85;;;;;;;4.79;100.00;101148.13;5074017;28;20092;-53
2023/01/30 07:13:17;;;;;;;31.45;14.15;;;;;;;4.85;100.00;101152.09;5074345;28;20048;-51
2023/01/30 07:15:44;;;;;;;27.73;11.88;;;;;;;4.93;100.00;101146.31;5074476;28;20094;-51
2023/01/30 07:18:11;;;;;;;33.00;14.85;;;;;;;4.87;100.00;101152.84;5074700;28;20098;-52
2023/01/30 07:20:37;;;;;;;30.88;14.52;;;;;;;4.94;100.00;101143.56;5074536;28;20049;-52
2023/01/30 07:23:04;;;;;;;31.85;14.98;;;;;;;4.91;100.00;101135.91;5073073;28;20040;-52
2023/01/30 07:25:31;;;;;;;25.50;13.13;;;;;;;4.91;100.00;101142.94;5074184;28;20098;-53
2023/01/30 07:28:00;;;;;;;31.45;15.10;;;;;;;5.02;100.00;101155.34;5074157;28;20095;-52
2023/01/30 07:30:28;;;;;;;28.42;14.15;;;;;;;4.99;100.00;101151.16;5074297;28;20075;-53
2023/01/30 07:32:57;;;;;;;29.77;14.50;;;;;;;4.98;100.00;101146.81;5072937;28;20078;-51
2023/01/30 07:35:25;;;;;;;28.23;14.07;;;;;;;5.09;100.00;101132.91;5069602;28;20079;-50
2023/01/30 07:37:52;;;;;;;27.13;12.73;;;;;;;5.04;100.00;101129.78;5078508;28;20072;-51
2023/01/30 07:40:20;;;;;;;26.55;13.18;;;;;;;5.04;100.00;101145.53;5016304;28;20455;-53
2023/01/30 07:43:05;;;;;;;26.80;12.70;;;;;;;5.09;100.00;101152.16;5069179;28;20076;-53
2023/01/30 07:45:37;;;;;;;26.90;13.00;;;;;;;5.10;100.00;101155.66;5073726;28;20120;-52
2023/01/30 07:48:04;;;;;;;;;;;;;;;5.13;100.00;101144.91;5064966;28;20048;-52
2023/01/30 07:50:31;;;;;;;24.85;12.02;;;;;;;5.12;100.00;101159.00;5075420;28;19973;-51
2023/01/30 07:53:01;;;;;;;25.23;13.05;;;;;;;5.10;100.00;101166.16;5073643;28;20048;-51
2023/01/30 07:55:28;;;;;;;24.10;11.88;;;;;;;5.18;100.00;101171.72;5068458;28;20486;-52
2023/01/30 07:57:55;;;;;;;22.77;10.20;;;;;;;5.25;100.00;101174.75;5067539;28;20086;-50
2023/01/30 08:00:21;;;;;;;20.67;10.68;;;;;;;5.24;100.00;101181.81;5067160;28;20048;-51
2023/01/30 08:02:48;;;;;;;32.05;14.65;;;;;;;5.27;100.00;101164.97;5084455;28;20052;-50
2023/01/30 08:05:15;;;;;;;27.17;12.07;;;;;;;5.25;100.00;101161.63;5072918;28;20044;-51
2023/01/30 08:07:42;;;;;;;32.70;14.65;;;;;;;5.33;100.00;101170.66;5069479;28;20493;-51
2023/01/30 08:10:09;;;;;;;35.47;15.30;;;;;;;5.31;100.00;101172.56;5057654;28;20044;-52
2023/01/30 08:12:39;;;;;;;30.83;15.75;;;;;;;5.34;100.00;101174.94;5081398;28;20051;-52
2023/01/30 08:15:07;;;;;;;37.05;16.15;;;;;;;5.35;100.00;101171.38;5063732;28;20052;-53
2023/01/30 08:17:34;;;;;;;32.63;16.38;;;;;;;5.48;100.00;101170.50;5082786;28;20052;-53
2023/01/30 08:20:01;;;;;;;30.02;15.13;;;;;;;5.46;100.00;101167.13;5083127;28;20052;-52
2023/01/30 08:22:27;;;;;;;33.10;16.33;;;;;;;5.48;100.00;101168.69;5067589;28;20061;-52
2023/01/30 08:24:54;;;;;;;35.30;14.95;;;;;;;5.61;100.00;101163.38;5054218;28;20513;-51
2023/01/30 08:27:21;;;;;;;34.53;15.30;;;;;;;5.63;100.00;101187.81;5070945;28;20045;-49
2023/01/30 08:29:47;;;;;;;33.03;15.60;;;;;;;5.67;100.00;101185.78;5071389;28;20044;-52
2023/01/30 08:32:14;;;;;;;36.20;15.80;;;;;;;5.91;100.00;101191.91;5072073;28;20123;-53
2023/01/30 08:34:41;;;;;;;31.13;15.32;;;;;;;5.80;100.00;101202.34;5069103;28;20123;-50
2023/01/30 08:37:08;;;;;;;31.35;13.98;;;;;;;5.91;100.00;101194.53;5069595;28;20029;-52
2023/01/30 08:39:34;;;;;;;39.00;14.93;;;;;;;6.06;100.00;101202.31;5064298;28;20043;-52
2023/01/30 08:42:02;;;;;;;31.60;11.80;;;;;;;6.15;100.00;101206.88;5058159;28;20037;-50
2023/01/30 08:44:29;;;;;;;32.67;13.20;;;;;;;5.89;100.00;101199.06;5071072;28;20091;-50
2023/01/30 08:46:56;;;;;;;30.88;13.15;;;;;;;5.88;100.00;101197.38;5072023;28;20044;-52
2023/01/30 08:49:22;;;;;;;39.70;14.00;;;;;;;5.86;100.00;101203.72;5073174;28;20048;-50
2023/01/30 08:51:49;;;;;;;28.35;12.10;;;;;;;5.88;100.00;101209.72;5072781;28;20102;-49
2023/01/30 08:54:16;;;;;;;29.90;11.73;;;;;;;5.84;100.00;101205.63;5083133;28;20436;-52
2023/01/30 08:56:43;;;;;;;22.55;9.35;;;;;;;5.81;100.00;101222.47;5062330;28;20052;-50
2023/01/30 08:59:09;;;;;;;27.45;10.05;;;;;;;5.79;100.00;101224.41;5068766;28;20032;-50
2023/01/30 09:01:37;;;;;;;28.20;11.32;;;;;;;5.77;100.00;101228.94;5070368;28;20059;-50
2023/01/30 09:04:04;;;;;;;25.05;9.98;;;;;;;5.84;100.00;101232.81;5070881;28;20080;-53
2023/01/30 09:06:31;;;;;;;32.83;10.52;;;;;;;5.95;100.00;101234.66;5092563;28;20081;-52
2023/01/30 09:08:59;;;;;;;26.52;9.35;;;;;;;5.97;100.00;101245.94;5066164;28;20041;-50
2023/01/30 09:11:26;;;;;;;34.10;10.15;;;;;;;6.05;100.00;101246.22;5053094;28;20135;-50
2023/01/30 09:13:54;;;;;;;23.77;11.07;;;;;;;5.99;100.00;101241.41;5059190;28;20044;-50
2023/01/30 09:16:21;;;;;;;26.67;11.70;;;;;;;6.05;100.00;101233.03;5075897;28;20529;-50
2023/01/30 09:18:48;;;;;;;38.20;13.10;;;;;;;6.05;100.00;101222.50;5070657;28;20036;-54
2023/01/30 09:21:14;;;;;;;32.25;13.00;;;;;;;6.22;99.83;101216.00;5081574;28;20513;-50
2023/01/30 09:23:41;;;;;;;29.58;12.63;;;;;;;6.20;99.32;101215.25;5065011;28;20128;-51
2023/01/30 09:26:07;;;;;;;26.83;8.38;;;;;;;6.13;99.08;101208.75;5066446;28;20068;-50
2023/01/30 09:28:34;;;;;;;38.05;11.35;;;;;;;6.02;100.00;101219.25;5071709;28;20672;-50
2023/01/30 09:31:01;;;;;;;32.83;9.30;;;;;;;6.06;98.98;101215.47;5070454;28;20067;-49
2023/01/30 09:33:28;;;;;;;26.42;6.95;;;;;;;5.99;97.74;101224.78;5046867;28;20406;-50
2023/01/30 09:35:55;;;;;;;20.20;5.80;;;;;;;5.92;97.96;101237.50;5067499;28;20048;-52
2023/01/30 09:38:22;;;;;;;24.35;5.15;;;;;;;6.02;96.84;101240.34;5064768;28;20045;-49
2023/01/30 09:41:14;;;;;;;24.95;5.18;;;;;;;6.12;94.81;101250.09;5057929;28;20116;-49
2023/01/30 09:44:13;;;;;;;22.02;5.63;;;;;;;6.25;94.22;101251.81;5077054;28;20132;-51
2023/01/30 09:47:06;;;;;;;21.35;5.88;;;;;;;6.26;92.48;101249.06;5066897;28;20491;-50
2023/01/30 09:50:02;;;;;;;17.42;4.78;;;;;;;6.32;93.27;101243.34;5066933;28;20037;-51
2023/01/30 09:52:52;;;;;;;21.70;5.15;;;;;;;6.46;91.10;101249.41;5065893;28;20049;-52
2023/01/30 09:55:24;;;;;;;25.63;5.60;;;;;;;6.51;90.68;101253.38;5072517;28;20044;-52
2023/01/30 09:57:51;;;;;;;24.37;4.97;;;;;;;6.63;89.35;101253.38;5060485;28;20569;-52
2023/01/30 10:00:32;;;;;;;28.52;5.00;;;;;;;6.71;88.12;101257.13;5065542;28;20377;-52
2023/01/30 10:03:24;;;;;;;26.00;3.88;;;;;;;6.47;90.09;101259.78;5067694;28;20444;-51
2023/01/30 10:05:54;;;;;;;25.40;4.63;;;;;;;6.52;87.89;101259.47;5072084;28;20052;-50
2023/01/30 10:08:44;;;;;;;27.52;5.03;;;;;;;6.45;89.08;101256.44;5069744;28;20058;-51
2023/01/30 10:11:51;;;;;;;18.50;4.10;;;;;;;6.53;86.68;101266.41;5057801;28;20052;-50
2023/01/30 10:14:42;;;;;;;28.77;4.22;;;;;;;6.43;88.37;101265.44;5065070;28;20048;-52
2023/01/30 10:17:36;;;;;;;25.83;4.53;;;;;;;6.46;86.76;101271.31;5071448;28;20064;-52
2023/01/30 10:20:42;;;;;;;30.08;4.25;;;;;;;6.47;85.95;101283.53;5070073;28;20048;-52
2023/01/30 10:23:48;;;;;;;22.80;3.10;;;;;;;6.52;84.30;101284.03;5065312;28;20044;-52
2023/01/30 10:26:19;;;;;;;22.30;4.43;;;;;;;6.52;85.71;101284.03;5059558;28;20068;-52
2023/01/30 10:28:56;;;;;;;30.52;4.78;;;;;;;6.56;84.87;101281.16;5078794;28;20437;-51
2023/01/30 10:31:43;;;;;;;21.88;4.28;;;;;;;6.56;85.06;101282.00;5065973;28;20048;-52
2023/01/30 10:34:17;;;;;;;32.92;3.53;;;;;;;6.60;85.03;101275.53;5062984;28;20037;-52
2023/01/30 10:36:56;;;;;;;16.60;3.25;;;;;;;6.46;83.41;101270.47;5055767;28;21454;-50
2023/01/30 10:39:33;;;;;;;27.33;4.13;;;;;;;6.54;81.88;101274.19;5070803;28;20046;-51
2023/01/30 10:42:10;;;;;;;23.98;3.13;;;;;;;6.51;81.15;101276.22;5037662;28;20048;-52
2023/01/30 10:44:40;;;;;;;18.50;3.67;;;;;;;6.50;82.35;101271.94;5071635;28;20053;-52
2023/01/30 10:47:32;;;;;;;27.40;3.67;;;;;;;6.47;84.20;101282.69;5069745;28;20123;-51
2023/01/30 10:50:17;;;;;;;26.02;3.85;;;;;;;6.46;84.15;101281.84;5066610;28;20136;-53
2023/01/30 10:53:11;;;;;;;17.35;3.13;;;;;;;6.43;80.83;101297.06;5065719;28;20538;-51
2023/01/30 10:55:47;;;;;;;24.95;3.40;;;;;;;6.48;81.18;101295.75;5059160;28;20086;-52
2023/01/30 11:01:05;;;;;;;21.85;3.50;;;;;;;6.49;80.12;101280.78;5089495;27;20121;-51
2023/01/30 11:03:45;;;;;;;17.90;3.38;;;;;;;6.39;81.90;101283.25;5080121;28;20123;-51
2023/01/30 11:06:17;;;;;;;24.38;3.75;;;;;;;6.45;80.12;101287.25;5079621;28;20048;-50
2023/01/30 11:08:44;;;;;;;26.65;3.80;;;;;;;6.45;80.03;101279.31;5065940;28;20047;-52
2023/01/30 11:11:41;;;;;;;18.48;3.38;;;;;;;6.36;79.74;101283.47;5068102;28;20044;-49
2023/01/30 11:14:10;;;;;;;25.88;3.72;;;;;;;6.44;79.41;101275.88;5075407;28;20143;-51
2023/01/30 11:16:51;;;;;;;27.30;4.75;;;;;;;6.42;78.66;101283.03;5065767;28;20040;-51
2023/01/30 11:19:21;;;;;;;;;;;;;;;6.57;79.25;101296.00;5079595;28;20448;-51
2023/01/30 11:21:52;;;;;;;19.25;3.47;;;;;;;6.52;80.43;101291.09;5076110;28;19920;-52
2023/01/30 11:24:22;;;;;;;20.60;3.33;;;;;;;6.53;80.17;101282.22;5076836;28;21894;-53
2023/01/30 11:26:51;;;;;;;27.25;4.00;;;;;;;6.63;80.39;101282.41;5067548;28;20043;-52
2023/01/30 11:29:29;;;;;;;26.00;3.88;;;;;;;6.72;79.00;101289.59;5074878;28;20052;-51
2023/01/30 11:32:02;;;;;;;23.55;4.28;;;;;;;6.69;78.75;101282.78;5068275;28;20485;-52
2023/01/30 11:34:29;;;;;;;27.20;3.92;;;;;;;6.75;78.82;101291.16;5064090;28;20040;-51
2023/01/30 11:37:34;;;;;;;21.73;4.15;;;;;;;6.69;78.83;101295.09;5076206;28;20797;-51
2023/01/30 11:40:20;;;;;;;26.67;3.63;;;;;;;6.88;77.36;101305.13;5057562;28;20050;-51
2023/01/30 11:42:49;;;;;;;23.73;3.45;;;;;;;6.80;76.95;101299.56;5053069;28;20040;-52
2023/01/30 11:45:17;;;;;;;29.42;3.75;;;;;;;6.69;78.96;101301.25;5076913;28;20051;-51
2023/01/30 11:47:50;;;;;;;21.50;3.40;;;;;;;6.73;77.77;101292.13;5064456;28;20049;-53
2023/01/30 11:50:29;;;;;;;22.73;3.60;;;;;;;6.71;76.74;101288.78;5077106;28;20543;-52